Decoded Metar for LFMH (ST.-ETIENNE in FRANCE) (IATA:EBU) | Meteo·Mobile Aviation Weather
aviador You're here:

LFMH Decoded Metar

ST.-ETIENNE in FRANCE
Report Time2018-12-16 16:30:00
UTC Time2018-12-16 17:01:21
Flight Rules vfr VFR
Wind170° at 05 kt
W.Decomp.*RWY 18: 4.9 kt HW 1 kt LCW
W.Rank170° ranks 2
Current wind is below 170° avg. (7.1)
Visibility9999 m
Phenomena:N/A
Clouds:Scattered 036 Hf
Broken 045 Hf
Broken 110 Hf
Expected CloudBase > 800 ft AGL from Temp-Dew spread
Ceiling4,500 ft
Temp07°C (ISA -5)
Dew Point05°C (87% RH)
AAT4.1°C
QNH1012 hPa
Density Alt830 ft
Elevation1,319 ft
Report Wrong Elevation
Raw Report
LFMH 161630Z AUTO 17005KT 9999 SCT036 BKN045 BKN110 07/05 Q1012
TEMPO 4000 BR=

Extra information for LFMH:More info

Metar Taf Metar & Taf Last 4 Metars F.Rules Stats Wind Profile Meteogram Temp Stats Airport Information Weather charts Add Link Nearby VenuesMetar ALERT Operation Metar Decoded Social comments